Time;durP1;ratioP1;P1;durP2;ratioP2;P2;SDS_P1;SDS_P2;PMS_P1;PMS_P2;Temp;Humidity;BMP_temperature;BMP_pressure;BME280_temperature;BME280_humidity;BME280_pressure;Samples;Min_cycle;Max_cycle;Signal;HPM_P1;HPM_P2
2021/12/01 00:01:11;;;;;;;0.90;0.65;;;;;;;14.33;55.87;99998.41;5059706;28;20051;-85
2021/12/01 00:03:40;;;;;;;0.90;0.65;;;;;;;14.33;55.81;99995.66;5056938;28;20696;-86
2021/12/01 00:06:08;;;;;;;0.90;0.77;;;;;;;14.30;55.70;99987.75;5056464;28;20136;-86
2021/12/01 00:08:35;;;;;;;3.40;0.70;;;;;;;14.28;55.99;99981.56;5064138;28;20079;-87
2021/12/01 00:11:03;;;;;;;0.80;0.60;;;;;;;14.27;55.69;99986.16;5054297;28;20040;-86
2021/12/01 00:13:32;;;;;;;2.92;0.70;;;;;;;14.25;55.70;99980.00;5064607;28;20057;-88
2021/12/01 00:16:00;;;;;;;1.17;0.57;;;;;;;14.24;55.88;99983.75;5054134;28;20048;-87
2021/12/01 00:18:28;;;;;;;0.63;0.60;;;;;;;14.24;55.66;99970.09;5052132;28;20056;-86
2021/12/01 00:20:56;;;;;;;2.00;0.70;;;;;;;14.23;55.81;99959.31;5053069;28;20059;-87
2021/12/01 00:23:24;;;;;;;1.35;0.60;;;;;;;14.24;55.71;99961.06;5045876;28;20041;-87
2021/12/01 00:25:52;;;;;;;0.50;0.50;;;;;;;14.23;55.50;99951.13;5071380;28;20059;-87
2021/12/01 00:28:20;;;;;;;1.48;0.50;;;;;;;14.21;55.50;99948.53;5064066;28;20072;-86
2021/12/01 00:30:47;;;;;;;1.92;0.70;;;;;;;14.19;55.99;99945.09;5064577;28;20052;-87
2021/12/01 00:33:17;;;;;;;1.30;0.65;;;;;;;14.19;55.53;99930.59;5052586;28;20148;-87
2021/12/01 00:35:46;;;;;;;0.50;0.50;;;;;;;14.17;55.69;99930.72;5049348;28;20048;-88
2021/12/01 00:38:14;;;;;;;1.02;0.60;;;;;;;14.17;55.55;99911.63;5047807;28;20052;-88
2021/12/01 00:40:41;;;;;;;0.50;0.50;;;;;;;14.15;55.63;99902.75;5052301;28;20049;-87
2021/12/01 00:43:15;;;;;;;0.93;0.60;;;;;;;14.14;56.05;99906.47;5051739;28;20112;-87
2021/12/01 00:45:51;;;;;;;1.00;0.60;;;;;;;14.17;55.75;99895.25;5066576;28;20056;-87
2021/12/01 00:48:18;;;;;;;1.38;0.60;;;;;;;14.15;55.60;99893.69;5072877;28;20118;-87
2021/12/01 00:50:46;;;;;;;0.93;0.50;;;;;;;14.15;55.91;99886.38;5063675;28;20448;-87
2021/12/01 00:53:13;;;;;;;1.00;0.60;;;;;;;14.16;55.50;99890.81;5047763;28;20053;-87
2021/12/01 00:55:43;;;;;;;0.70;0.50;;;;;;;14.15;55.70;99872.72;5036241;28;20118;-86
2021/12/01 00:58:13;;;;;;;0.73;0.60;;;;;;;14.18;55.26;99861.47;5054700;28;20076;-88
2021/12/01 01:00:41;;;;;;;1.63;0.90;;;;;;;14.16;55.54;99859.94;5060682;28;20075;-86
2021/12/01 01:03:09;;;;;;;0.77;0.60;;;;;;;14.15;55.76;99864.53;5058769;28;20075;-88
2021/12/01 01:05:37;;;;;;;1.08;0.60;;;;;;;14.16;55.42;99857.19;5039354;28;20506;-86
2021/12/01 01:08:05;;;;;;;1.23;0.60;;;;;;;14.17;55.57;99845.25;5041219;28;20062;-86
2021/12/01 01:18:47;;;;;;;0.90;0.60;;;;;;;14.14;55.42;99832.78;5055531;28;20060;-86
2021/12/01 01:21:15;;;;;;;0.95;0.70;;;;;;;14.12;55.16;99833.91;5056581;28;20104;-86
2021/12/01 01:23:42;;;;;;;1.15;0.80;;;;;;;14.15;55.65;99822.72;5077048;28;20095;-85
2021/12/01 01:26:13;;;;;;;2.50;1.00;;;;;;;14.17;55.16;99817.94;5055600;28;20060;-86
2021/12/01 01:28:41;;;;;;;1.10;0.75;;;;;;;14.16;55.19;99818.97;5063081;28;20066;-86
2021/12/01 01:31:09;;;;;;;1.92;0.80;;;;;;;14.16;55.20;99818.97;5069371;28;20076;-86
2021/12/01 01:33:36;;;;;;;1.60;0.80;;;;;;;14.14;55.30;99816.41;5061435;28;20048;-86
2021/12/01 01:36:04;;;;;;;1.48;0.75;;;;;;;14.16;55.27;99819.84;5050060;28;20744;-86
2021/12/01 01:38:34;;;;;;;1.55;0.90;;;;;;;14.16;55.29;99808.94;5047929;28;20069;-85
2021/12/01 01:41:04;;;;;;;1.73;0.90;;;;;;;14.16;54.98;99805.34;5066272;28;20048;-85
2021/12/01 01:43:31;;;;;;;1.38;0.80;;;;;;;14.14;55.12;99801.88;5056232;28;20048;-86
2021/12/01 01:45:58;;;;;;;1.42;0.90;;;;;;;14.15;54.87;99801.75;5053038;28;20045;-85
2021/12/01 01:48:32;;;;;;;1.70;0.90;;;;;;;14.15;55.03;99806.34;5061386;28;20122;-85
2021/12/01 01:51:03;;;;;;;1.98;0.73;;;;;;;14.15;55.04;99795.41;5050167;28;20139;-85
2021/12/01 01:53:30;;;;;;;1.17;0.88;;;;;;;14.15;54.59;99779.03;5049458;28;20051;-86
2021/12/01 01:56:05;;;;;;;1.60;1.17;;;;;;;14.15;54.68;99766.25;5057322;28;20063;-85
2021/12/01 01:58:33;;;;;;;1.77;0.80;;;;;;;14.12;54.73;99772.00;5063643;28;20049;-86
2021/12/01 02:01:10;;;;;;;1.02;0.73;;;;;;;14.14;54.87;99760.94;5048086;28;20051;-85
2021/12/01 02:03:47;;;;;;;1.23;0.80;;;;;;;14.14;54.52;99764.53;5041342;28;20053;-85
2021/12/01 02:06:22;;;;;;;1.17;0.95;;;;;;;14.10;54.91;99758.50;5037622;28;20070;-86
2021/12/01 02:08:51;;;;;;;1.75;0.85;;;;;;;14.10;54.91;99735.81;5057799;28;20140;-85
2021/12/01 02:11:20;;;;;;;2.10;1.13;;;;;;;14.08;54.97;99741.41;5050061;28;20059;-85
2021/12/01 02:13:49;;;;;;;2.13;0.98;;;;;;;14.07;54.44;99727.94;5037863;28;20052;-85
2021/12/01 02:16:17;;;;;;;1.95;0.95;;;;;;;14.05;54.55;99733.53;5068993;28;20052;-85
2021/12/01 02:18:44;;;;;;;1.00;0.90;;;;;;;14.04;54.69;99703.66;5062564;28;20557;-86
2021/12/01 02:21:12;;;;;;;1.45;1.10;;;;;;;14.04;54.75;99707.25;5076892;28;20052;-85
2021/12/01 02:23:41;;;;;;;3.65;1.40;;;;;;;14.00;54.34;99703.09;5073793;28;20052;-86
2021/12/01 02:26:09;;;;;;;2.00;1.17;;;;;;;13.99;54.78;99698.69;5076283;28;20051;-85
2021/12/01 02:28:36;;;;;;;2.17;1.25;;;;;;;13.98;54.78;99694.22;5076899;28;20053;-84
2021/12/01 02:31:03;;;;;;;2.30;1.33;;;;;;;13.97;54.52;99689.78;5063170;28;20049;-86
2021/12/01 02:33:30;;;;;;;2.30;1.60;;;;;;;13.94;54.70;99690.06;5055249;28;20442;-84
2021/12/01 02:35:57;;;;;;;2.25;1.55;;;;;;;13.94;54.47;99687.34;5067841;28;20134;-84
2021/12/01 02:38:24;;;;;;;4.28;1.60;;;;;;;13.91;54.37;99671.31;5068933;28;20044;-85
2021/12/01 02:40:51;;;;;;;2.38;1.55;;;;;;;13.88;54.58;99677.06;5071760;28;20048;-84
2021/12/01 02:43:22;;;;;;;2.38;1.42;;;;;;;13.89;54.31;99676.03;5075219;28;20049;-85
2021/12/01 02:45:53;;;;;;;2.95;1.77;;;;;;;13.91;54.36;99654.06;5068092;28;20630;-82
2021/12/01 02:48:22;;;;;;;3.60;1.70;;;;;;;13.87;54.58;99667.16;5068844;28;20053;-83
2021/12/01 02:50:50;;;;;;;2.95;1.67;;;;;;;13.84;54.43;99672.03;5046757;28;20167;-83
2021/12/01 02:53:20;;;;;;;2.63;1.70;;;;;;;13.85;54.44;99655.53;5073854;28;20118;-84
2021/12/01 02:55:56;;;;;;;3.05;1.80;;;;;;;13.87;54.31;99658.09;5046298;28;20067;-83
2021/12/01 02:58:25;;;;;;;3.63;2.03;;;;;;;13.85;54.42;99651.94;5076291;28;20049;-83
2021/12/01 03:00:57;;;;;;;3.63;2.00;;;;;;;13.84;54.10;99650.22;5065046;28;20040;-82
2021/12/01 03:03:25;;;;;;;2.78;1.75;;;;;;;13.83;54.39;99649.38;5054877;28;20083;-83
2021/12/01 03:05:53;;;;;;;3.22;1.80;;;;;;;13.83;54.41;99643.94;5070723;28;20070;-83
2021/12/01 03:08:20;;;;;;;3.83;1.98;;;;;;;13.83;54.39;99634.88;5051587;28;20140;-84
2021/12/01 03:10:50;;;;;;;3.83;2.10;;;;;;;13.82;54.15;99625.84;5055868;28;20080;-83
2021/12/01 03:13:18;;;;;;;3.85;2.00;;;;;;;13.82;53.99;99635.88;5058904;28;20178;-83
2021/12/01 03:15:46;;;;;;;3.42;2.08;;;;;;;13.78;54.30;99626.28;5064584;28;20072;-83
2021/12/01 03:18:14;;;;;;;3.15;2.08;;;;;;;13.79;54.47;99619.81;5070442;28;20051;-83
2021/12/01 03:20:41;;;;;;;3.67;2.47;;;;;;;13.79;54.24;99622.53;5065705;28;20085;-82
2021/12/01 03:23:09;;;;;;;4.03;2.22;;;;;;;13.75;54.07;99597.47;5053830;28;20122;-83
2021/12/01 03:25:36;;;;;;;3.83;2.20;;;;;;;13.78;54.27;99593.53;5056913;28;20080;-83
2021/12/01 03:28:06;;;;;;;4.60;2.70;;;;;;;13.78;53.89;99604.44;5054180;28;20049;-82
2021/12/01 03:30:34;;;;;;;5.15;2.72;;;;;;;13.76;53.84;99595.56;5069155;28;20163;-83
2021/12/01 03:33:02;;;;;;;4.55;2.78;;;;;;;13.76;53.88;99593.69;5069121;28;20041;-83
2021/12/01 03:35:29;;;;;;;4.10;2.28;;;;;;;13.75;53.95;99592.00;5070374;28;20654;-82
2021/12/01 03:37:56;;;;;;;4.47;2.83;;;;;;;13.76;53.81;99585.50;5058013;28;20139;-82
2021/12/01 03:40:23;;;;;;;4.20;2.95;;;;;;;13.75;54.03;99572.03;5056106;28;20044;-83
2021/12/01 03:42:50;;;;;;;5.57;3.40;;;;;;;13.75;53.74;99581.09;5063888;28;20059;-82
2021/12/01 03:45:17;;;;;;;5.40;3.30;;;;;;;13.73;53.61;99555.81;5063039;28;20372;-81
2021/12/01 03:47:45;;;;;;;5.13;2.92;;;;;;;13.73;53.79;99547.63;5072883;28;20052;-84
2021/12/01 03:50:11;;;;;;;4.85;3.05;;;;;;;13.71;53.28;99560.56;5038915;28;20040;-84
2021/12/01 03:52:38;;;;;;;4.35;2.90;;;;;;;13.68;54.06;99552.69;5058407;28;20503;-82
2021/12/01 03:55:06;;;;;;;5.60;3.67;;;;;;;13.69;53.67;99551.69;5058656;28;20044;-82
2021/12/01 03:57:34;;;;;;;5.47;3.13;;;;;;;13.67;53.69;99546.38;5077027;28;20048;-83
2021/12/01 04:00:03;;;;;;;5.07;3.25;;;;;;;13.65;53.93;99526.59;5069800;28;20052;-82
2021/12/01 04:02:30;;;;;;;4.82;3.00;;;;;;;13.66;53.99;99532.91;5062960;28;20065;-83
2021/12/01 04:04:57;;;;;;;4.88;2.90;;;;;;;13.64;53.72;99513.09;5055776;28;20049;-83
2021/12/01 04:07:23;;;;;;;5.55;3.25;;;;;;;13.63;53.72;99505.94;5055195;28;20059;-83
2021/12/01 04:09:51;;;;;;;4.20;2.72;;;;;;;13.64;53.62;99504.94;5072298;28;20052;-83
2021/12/01 04:12:17;;;;;;;4.65;3.00;;;;;;;13.63;53.87;99493.16;5047140;28;20076;-82
2021/12/01 04:14:45;;;;;;;5.57;3.22;;;;;;;13.60;53.47;99484.41;5048721;28;20052;-82
2021/12/01 04:17:12;;;;;;;5.65;3.20;;;;;;;13.58;53.77;99487.31;5048115;28;20072;-82
2021/12/01 04:19:38;;;;;;;4.57;3.05;;;;;;;13.57;53.68;99471.13;5058868;28;20499;-81
2021/12/01 04:22:05;;;;;;;4.63;3.03;;;;;;;13.54;53.98;99458.63;5048134;28;20118;-82
2021/12/01 04:24:32;;;;;;;4.45;2.72;;;;;;;13.54;53.61;99458.63;5049838;28;20048;-82
2021/12/01 04:26:59;;;;;;;4.25;2.78;;;;;;;13.54;54.08;99444.16;5067460;28;20138;-82
2021/12/01 04:29:26;;;;;;;4.78;2.65;;;;;;;13.54;53.99;99436.81;5070653;28;20103;-82
2021/12/01 04:31:53;;;;;;;4.28;2.60;;;;;;;13.54;54.05;99441.41;5067740;28;20061;-82
2021/12/01 04:34:20;;;;;;;4.20;2.50;;;;;;;13.55;53.77;99440.41;5061220;28;20045;-82
2021/12/01 04:36:49;;;;;;;3.40;2.28;;;;;;;13.56;53.76;99432.06;5062965;28;20059;-81
2021/12/01 04:39:20;;;;;;;4.93;3.00;;;;;;;13.59;53.55;99444.53;5063516;28;20146;-82
2021/12/01 04:41:52;;;;;;;5.50;2.60;;;;;;;13.58;53.91;99431.94;5054750;28;20049;-82
2021/12/01 04:44:22;;;;;;;5.00;2.70;;;;;;;13.58;53.58;99440.97;5065094;28;20076;-83
2021/12/01 04:46:52;;;;;;;4.13;2.47;;;;;;;13.58;53.76;99438.25;5037897;28;20075;-81
2021/12/01 04:49:21;;;;;;;4.60;2.67;;;;;;;13.58;53.71;99418.28;5063236;28;20048;-82
2021/12/01 04:51:51;;;;;;;4.57;2.58;;;;;;;13.59;53.33;99409.94;5048032;28;20719;-82
2021/12/01 04:54:18;;;;;;;4.07;2.22;;;;;;;13.55;53.62;99402.22;5058227;28;20518;-81
2021/12/01 04:56:47;;;;;;;5.43;2.88;;;;;;;13.56;53.71;99402.09;5051856;28;20066;-82
2021/12/01 04:59:14;;;;;;;4.80;2.60;;;;;;;13.56;53.39;99403.94;5068674;28;20053;-82
2021/12/01 05:01:41;;;;;;;3.70;2.10;;;;;;;13.54;53.63;99385.00;5066121;28;20051;-82
2021/12/01 05:04:10;;;;;;;3.78;2.17;;;;;;;13.56;53.48;99371.22;5061675;28;20097;-82
2021/12/01 05:06:37;;;;;;;4.50;1.90;;;;;;;13.55;53.33;99374.97;5071156;28;20572;-83
2021/12/01 05:09:06;;;;;;;4.18;2.00;;;;;;;13.55;53.26;99377.69;5045897;28;20080;-82
2021/12/01 05:11:33;;;;;;;3.17;1.65;;;;;;;13.53;53.64;99366.94;5068222;28;20041;-83
2021/12/01 05:14:10;;;;;;;4.15;1.88;;;;;;;13.53;53.01;99356.03;5072046;28;20056;-83
2021/12/01 05:16:39;;;;;;;3.33;1.70;;;;;;;13.53;53.22;99357.91;5058050;28;20526;-83
2021/12/01 05:19:07;;;;;;;2.95;1.73;;;;;;;13.54;53.19;99354.16;5054507;28;20052;-82
2021/12/01 05:21:34;;;;;;;2.83;1.40;;;;;;;13.52;53.24;99340.69;5056102;28;20045;-82
2021/12/01 05:24:02;;;;;;;3.00;1.75;;;;;;;13.53;53.42;99338.81;5044628;28;20048;-80
2021/12/01 05:26:29;;;;;;;2.88;1.63;;;;;;;13.52;53.36;99323.47;5064381;28;20117;-82
2021/12/01 05:28:56;;;;;;;2.85;1.48;;;;;;;13.53;52.89;99344.25;5071179;28;20056;-82
2021/12/01 05:31:23;;;;;;;2.35;1.30;;;;;;;13.51;53.05;99308.09;5068667;28;20094;-82
2021/12/01 05:33:50;;;;;;;2.30;1.23;;;;;;;13.50;52.98;99287.34;5045723;28;20825;-82
2021/12/01 05:36:17;;;;;;;3.05;1.30;;;;;;;13.50;53.17;99281.88;5069782;28;20407;-82
2021/12/01 05:38:43;;;;;;;2.20;1.20;;;;;;;13.50;53.33;99281.88;5050648;28;20110;-84
2021/12/01 05:41:10;;;;;;;3.58;1.30;;;;;;;13.50;53.30;99269.13;5075149;28;20046;-82
2021/12/01 05:43:37;;;;;;;2.03;1.20;;;;;;;13.50;52.97;99268.25;5082397;28;20052;-82
2021/12/01 05:46:04;;;;;;;2.08;1.15;;;;;;;13.50;52.92;99246.44;5042255;28;20128;-81
2021/12/01 05:48:31;;;;;;;2.60;1.40;;;;;;;13.49;53.08;99258.38;5068404;28;20127;-82
2021/12/01 05:50:58;;;;;;;2.47;1.13;;;;;;;13.48;52.91;99238.41;5059620;28;20045;-83
2021/12/01 05:53:24;;;;;;;2.90;1.40;;;;;;;13.49;52.85;99225.66;5068617;28;20084;-83
2021/12/01 05:55:51;;;;;;;2.28;1.20;;;;;;;13.48;52.88;99224.78;5055810;28;20110;-81
2021/12/01 05:58:18;;;;;;;3.42;1.20;;;;;;;13.49;52.87;99207.41;5080702;28;20051;-82
2021/12/01 06:00:45;;;;;;;2.70;1.27;;;;;;;13.50;53.23;99222.75;5063162;28;20084;-82
2021/12/01 06:03:12;;;;;;;2.13;1.20;;;;;;;13.51;53.18;99215.41;5046698;28;20132;-82
2021/12/01 06:05:58;;;;;;;3.47;1.35;;;;;;;13.51;52.55;99199.06;5055592;28;20558;-80
2021/12/01 06:08:25;;;;;;;1.60;1.10;;;;;;;13.50;53.25;99194.63;5040693;28;20059;-81
2021/12/01 06:10:52;;;;;;;1.77;1.17;;;;;;;13.52;53.09;99188.00;5050773;28;20048;-81
2021/12/01 06:13:20;;;;;;;1.60;1.10;;;;;;;13.53;53.34;99191.56;5045270;28;20041;-82
2021/12/01 06:15:52;;;;;;;1.73;1.10;;;;;;;13.54;53.24;99182.38;5051434;28;20057;-81
2021/12/01 06:18:19;;;;;;;1.60;1.10;;;;;;;13.55;53.00;99186.81;5056802;28;20068;-81
2021/12/01 06:20:46;;;;;;;2.15;1.20;;;;;;;13.55;52.90;99165.88;5063934;28;20145;-81
2021/12/01 06:23:13;;;;;;;1.83;1.20;;;;;;;13.55;53.04;99173.19;5070394;28;20079;-82
2021/12/01 06:25:41;;;;;;;2.78;1.23;;;;;;;13.57;53.31;99165.72;5062785;28;20118;-81
2021/12/01 06:28:08;;;;;;;1.67;1.10;;;;;;;13.57;53.25;99166.56;5067686;28;20810;-81
2021/12/01 06:30:36;;;;;;;2.28;1.10;;;;;;;13.58;52.90;99145.59;5038448;28;20053;-79
2021/12/01 06:33:03;;;;;;;1.33;0.90;;;;;;;13.56;52.77;99137.59;5067596;28;20075;-78
2021/12/01 06:35:30;;;;;;;1.80;1.08;;;;;;;13.58;52.72;99142.88;5058986;28;20164;-78
2021/12/01 06:37:57;;;;;;;1.83;1.00;;;;;;;13.58;52.85;99131.97;5048582;28;20060;-78
2021/12/01 06:40:24;;;;;;;2.35;1.15;;;;;;;13.58;52.72;99127.38;5060523;28;20045;-78
2021/12/01 06:42:51;;;;;;;2.33;1.30;;;;;;;13.59;52.82;99122.75;5042701;28;20158;-77
2021/12/01 06:45:18;;;;;;;2.63;1.20;;;;;;;13.57;52.82;99125.66;5068612;28;20083;-78
2021/12/01 06:47:45;;;;;;;1.35;0.80;;;;;;;13.57;53.06;99122.94;5052653;28;20056;-77
2021/12/01 06:50:12;;;;;;;2.03;1.10;;;;;;;13.57;52.43;99109.31;5069251;28;20045;-77
2021/12/01 06:52:39;;;;;;;1.25;0.90;;;;;;;13.56;52.85;99107.59;5068261;28;20102;-77
2021/12/01 06:55:08;;;;;;;1.48;0.88;;;;;;;13.57;52.50;99109.31;5066324;28;20040;-77
2021/12/01 06:57:35;;;;;;;2.30;1.00;;;;;;;13.56;52.85;99107.59;5051297;28;20069;-77
2021/12/01 07:00:06;;;;;;;1.48;0.90;;;;;;;13.58;52.74;99104.72;5072429;28;20427;-77
2021/12/01 07:02:33;;;;;;;1.65;1.00;;;;;;;13.57;52.60;99103.00;5054387;28;20492;-77
2021/12/01 07:05:00;;;;;;;2.28;0.80;;;;;;;13.57;53.01;99084.75;5061092;28;20045;-76
2021/12/01 07:07:26;;;;;;;1.40;0.90;;;;;;;13.60;52.40;99086.28;5051505;28;20091;-76
2021/12/01 07:09:54;;;;;;;2.00;0.80;;;;;;;13.59;52.69;99076.38;5059730;28;20395;-77
2021/12/01 07:12:21;;;;;;;3.83;0.80;;;;;;;13.59;52.69;99081.84;5056499;28;20060;-77
2021/12/01 07:14:47;;;;;;;0.85;0.60;;;;;;;13.59;52.49;99076.38;5066043;28;20102;-78
2021/12/01 07:17:14;;;;;;;1.13;0.75;;;;;;;13.60;52.79;99073.50;5063922;28;20049;-77
2021/12/01 07:19:41;;;;;;;1.63;0.80;;;;;;;13.60;52.56;99076.22;5059616;28;20596;-78
2021/12/01 07:22:31;;;;;;;1.70;0.90;;;;;;;13.61;52.63;99068.91;5070449;28;20055;-76
2021/12/01 07:24:58;;;;;;;1.67;0.90;;;;;;;13.61;52.69;99064.31;5068084;28;20037;-78
2021/12/01 07:27:25;;;;;;;1.25;0.70;;;;;;;13.64;52.64;99060.41;5062453;28;20434;-79
2021/12/01 07:29:51;;;;;;;1.55;0.80;;;;;;;13.66;52.58;99050.19;5072778;28;20049;-79
2021/12/01 07:32:18;;;;;;;1.45;0.80;;;;;;;13.67;52.77;99051.91;5055914;28;20124;-80
2021/12/01 07:34:45;;;;;;;0.85;0.60;;;;;;;13.67;52.29;99033.63;5072339;28;20053;-80
2021/12/01 07:37:14;;;;;;;1.30;0.80;;;;;;;13.70;52.58;99036.03;5054729;28;20052;-81
2021/12/01 07:39:42;;;;;;;1.30;0.70;;;;;;;13.70;52.32;99051.56;5054770;28;20052;-79
2021/12/01 07:42:10;;;;;;;1.23;0.80;;;;;;;13.71;52.46;99034.16;5063691;28;20052;-80
2021/12/01 07:44:37;;;;;;;2.00;0.55;;;;;;;13.75;52.39;99024.66;5062649;28;20041;-79
2021/12/01 07:47:05;;;;;;;0.98;0.55;;;;;;;13.75;52.16;99011.00;5060924;28;20049;-80
2021/12/01 07:49:31;;;;;;;1.10;0.43;;;;;;;13.75;52.38;98999.25;5053244;28;20563;-79
2021/12/01 07:51:59;;;;;;;1.45;0.70;;;;;;;13.75;52.46;99008.28;5058101;28;20142;-78
2021/12/01 07:54:26;;;;;;;1.67;0.68;;;;;;;13.77;52.32;99000.75;5064186;28;20056;-79
2021/12/01 07:56:53;;;;;;;0.95;0.60;;;;;;;13.78;52.14;99007.06;5065473;28;20248;-79
2021/12/01 07:59:19;;;;;;;0.93;0.47;;;;;;;13.79;52.18;98996.00;5067527;28;20123;-79
2021/12/01 08:01:46;;;;;;;1.08;0.50;;;;;;;13.80;52.24;98996.84;5057415;28;20083;-79
2021/12/01 08:04:13;;;;;;;1.00;0.60;;;;;;;13.81;52.26;99002.16;5048148;28;20511;-79
2021/12/01 08:06:43;;;;;;;1.35;0.60;;;;;;;13.81;52.35;98968.56;5044077;28;20076;-79
2021/12/01 08:09:10;;;;;;;0.70;0.50;;;;;;;13.82;52.00;98987.50;5058144;28;20094;-79
2021/12/01 08:11:40;;;;;;;0.95;0.50;;;;;;;13.84;52.18;98990.03;5067712;28;20045;-79
2021/12/01 08:14:07;;;;;;;1.17;0.40;;;;;;;13.84;52.12;98977.25;5070724;28;20048;-79
2021/12/01 08:16:35;;;;;;;0.52;0.38;;;;;;;13.86;52.18;98972.47;5057802;28;20052;-79
2021/12/01 08:19:04;;;;;;;0.70;0.40;;;;;;;13.87;51.90;98978.78;5057260;28;20075;-79
2021/12/01 08:21:31;;;;;;;0.77;0.30;;;;;;;13.87;52.29;98962.41;5064507;28;20106;-79
2021/12/01 08:24:10;;;;;;;0.43;0.40;;;;;;;13.88;51.89;98975.03;5056929;28;20059;-79
2021/12/01 08:26:37;;;;;;;0.80;0.40;;;;;;;13.89;52.07;98977.59;5048108;28;20042;-78
2021/12/01 08:29:04;;;;;;;0.60;0.38;;;;;;;13.88;51.86;98970.44;5051042;28;20041;-78
2021/12/01 08:31:31;;;;;;;0.68;0.40;;;;;;;13.88;51.84;98961.41;5065121;28;20140;-78
2021/12/01 08:33:57;;;;;;;0.40;0.35;;;;;;;13.87;51.96;98955.09;5065561;28;20743;-78
2021/12/01 08:36:24;;;;;;;0.40;0.40;;;;;;;13.88;51.86;98950.50;5050416;28;20052;-78
2021/12/01 08:38:51;;;;;;;0.60;0.45;;;;;;;13.90;51.91;98956.63;5057854;28;20053;-78
2021/12/01 08:41:18;;;;;;;0.77;0.47;;;;;;;13.91;52.26;98950.16;5048921;28;20485;-79
2021/12/01 08:43:46;;;;;;;0.70;0.50;;;;;;;13.92;52.08;98955.44;5065769;28;20044;-78
2021/12/01 08:46:13;;;;;;;0.30;0.30;;;;;;;13.93;52.02;98946.22;5069388;28;20060;-78
2021/12/01 08:48:39;;;;;;;0.60;0.40;;;;;;;13.92;51.80;98947.25;5070485;28;20131;-79
2021/12/01 08:51:06;;;;;;;1.40;0.50;;;;;;;13.94;51.81;98937.03;5068500;28;20106;-78
2021/12/01 08:53:36;;;;;;;1.38;0.80;;;;;;;13.95;51.81;98932.41;5069797;28;20129;-79
2021/12/01 08:56:03;;;;;;;1.67;0.90;;;;;;;13.96;52.15;98937.72;5065878;28;20132;-79
2021/12/01 08:58:30;;;;;;;0.77;0.40;;;;;;;13.95;52.23;98924.22;5049259;28;20487;-79
2021/12/01 09:00:58;;;;;;;1.08;0.40;;;;;;;13.97;52.42;98928.50;5056685;28;20052;-78
2021/12/01 09:03:25;;;;;;;1.05;0.32;;;;;;;13.97;51.97;98911.28;5052735;28;20040;-79
2021/12/01 09:05:53;;;;;;;0.43;0.32;;;;;;;13.98;52.28;98913.00;5051071;28;20084;-78
2021/12/01 09:08:22;;;;;;;0.35;0.35;;;;;;;13.99;52.02;98912.81;5070153;28;20097;-79
2021/12/01 09:10:52;;;;;;;0.52;0.40;;;;;;;13.99;52.34;98915.56;5067116;28;20087;-78
2021/12/01 09:13:24;;;;;;;0.57;0.38;;;;;;;14.01;52.26;98916.22;5069380;28;20068;-78
2021/12/01 09:15:52;;;;;;;0.60;0.30;;;;;;;14.01;51.89;98899.84;5060260;28;20558;-78
2021/12/01 09:18:21;;;;;;;0.38;0.38;;;;;;;14.01;52.33;98908.03;5063239;28;20049;-78
2021/12/01 09:20:48;;;;;;;0.65;0.50;;;;;;;14.02;52.26;98906.16;5055387;28;20071;-79
2021/12/01 09:23:15;;;;;;;0.77;0.43;;;;;;;14.04;52.03;98906.84;5065288;28;20115;-79
2021/12/01 09:25:44;;;;;;;0.40;0.40;;;;;;;14.04;52.10;98907.69;5069550;28;20098;-79
2021/12/01 09:28:22;;;;;;;0.60;0.40;;;;;;;14.06;52.15;98902.91;5077134;28;20060;-78
2021/12/01 09:30:50;;;;;;;0.55;0.40;;;;;;;14.07;52.32;98895.59;5062161;28;20044;-79
2021/12/01 09:33:17;;;;;;;1.05;0.50;;;;;;;14.06;52.14;98888.41;5051963;28;20485;-79
2021/12/01 09:35:46;;;;;;;1.05;0.43;;;;;;;14.07;52.14;98887.41;5067059;28;20131;-79
2021/12/01 09:38:15;;;;;;;0.80;0.40;;;;;;;14.07;52.33;98860.13;5062467;28;20449;-78
2021/12/01 09:40:47;;;;;;;0.63;0.40;;;;;;;14.07;52.29;98882.78;5058698;28;20063;-78
2021/12/01 09:43:16;;;;;;;0.63;0.40;;;;;;;14.05;52.14;98876.66;5067891;28;20076;-79
2021/12/01 09:45:44;;;;;;;0.93;0.38;;;;;;;14.07;52.53;98880.06;5067593;28;20103;-78
2021/12/01 09:48:11;;;;;;;0.40;0.40;;;;;;;14.07;52.33;98862.84;5062234;28;20060;-78
2021/12/01 09:50:38;;;;;;;0.55;0.40;;;;;;;14.07;52.63;98868.31;5037550;28;20481;-78
2021/12/01 09:53:06;;;;;;;0.65;0.65;;;;;;;14.09;52.13;98867.06;5065023;28;20037;-78
2021/12/01 09:55:33;;;;;;;0.30;0.30;;;;;;;14.08;52.29;98853.63;5050007;28;20127;-79
2021/12/01 09:58:10;;;;;;;0.50;0.30;;;;;;;14.10;52.50;98859.75;5064856;28;20133;-79
2021/12/01 10:00:40;;;;;;;0.98;0.43;;;;;;;14.08;52.22;98849.00;5074527;28;20135;-78
2021/12/01 10:03:08;;;;;;;0.30;0.30;;;;;;;14.08;52.31;98851.72;5067785;28;20044;-79
2021/12/01 10:06:13;;;;;;;0.60;0.43;;;;;;;14.09;52.16;98838.94;5072188;28;20040;-78
2021/12/01 10:08:43;;;;;;;0.90;0.38;;;;;;;14.10;52.58;98833.31;5074816;28;20098;-79
2021/12/01 10:11:16;;;;;;;0.40;0.40;;;;;;;14.13;52.00;98837.59;5057931;28;20384;-78
2021/12/01 10:13:48;;;;;;;;;;;;;;;13.91;52.96;98832.84;5039138;28;20048;-78
2021/12/01 10:16:18;;;;;;;0.35;0.30;;;;;;;14.09;52.76;98815.22;5060485;28;19924;-78
2021/12/01 10:18:47;;;;;;;0.85;0.40;;;;;;;14.14;52.42;98828.38;5068118;28;20079;-78
2021/12/01 10:21:28;;;;;;;1.02;0.50;;;;;;;14.15;52.52;98830.06;5052345;28;20044;-79
2021/12/01 10:24:01;;;;;;;0.60;0.30;;;;;;;14.15;52.42;98815.59;5047725;28;20128;-79
2021/12/01 10:26:37;;;;;;;1.85;0.40;;;;;;;14.15;52.29;98823.75;5045803;28;20052;-77
2021/12/01 10:29:08;;;;;;;0.73;0.30;;;;;;;14.15;52.55;98808.25;5082064;28;20052;-78
2021/12/01 10:31:37;;;;;;;0.50;0.30;;;;;;;14.17;52.54;98811.63;5048705;28;20259;-78
2021/12/01 10:34:19;;;;;;;0.60;0.40;;;;;;;14.17;52.13;98799.84;5055591;28;20045;-78
2021/12/01 10:36:49;;;;;;;1.52;0.68;;;;;;;14.18;52.58;98805.16;5051190;28;20048;-78
2021/12/01 10:39:17;;;;;;;0.52;0.40;;;;;;;14.19;52.68;98808.72;5047859;28;20500;-78
2021/12/01 10:41:44;;;;;;;0.60;0.30;;;;;;;14.19;52.60;98792.34;5057841;28;20118;-78
2021/12/01 10:44:12;;;;;;;0.60;0.30;;;;;;;14.24;52.59;98784.50;5067557;28;20048;-78
2021/12/01 10:47:08;;;;;;;0.43;0.30;;;;;;;14.20;52.34;98780.41;5066055;28;20048;-78
2021/12/01 10:49:43;;;;;;;0.20;0.20;;;;;;;14.22;52.21;98779.22;5047551;28;20094;-78
2021/12/01 10:52:33;;;;;;;0.68;0.30;;;;;;;14.20;52.17;98769.50;5038866;28;20500;-79
2021/12/01 10:55:04;;;;;;;0.30;0.20;;;;;;;14.24;52.24;98758.06;5051173;28;20098;-78
2021/12/01 10:57:31;;;;;;;0.25;0.20;;;;;;;14.24;52.56;98749.88;5076980;28;20047;-78
2021/12/01 10:59:58;;;;;;;1.08;0.30;;;;;;;14.25;52.42;98759.75;5079034;28;20460;-78
2021/12/01 11:02:25;;;;;;;0.75;0.25;;;;;;;14.26;52.53;98764.19;5051253;28;20430;-77
2021/12/01 11:04:52;;;;;;;0.20;0.20;;;;;;;14.25;52.64;98750.69;5058659;28;20397;-78
2021/12/01 11:07:33;;;;;;;0.82;0.40;;;;;;;14.30;52.24;98740.13;5071342;28;20095;-78
2021/12/01 11:10:23;;;;;;;0.32;0.32;;;;;;;14.30;52.17;98751.88;5053423;28;20446;-78
2021/12/01 11:12:58;;;;;;;0.20;0.20;;;;;;;14.29;52.58;98731.06;5063031;28;20086;-78
2021/12/01 11:15:26;;;;;;;0.20;0.20;;;;;;;14.31;52.28;98725.44;5057446;28;20052;-78
2021/12/01 11:17:56;;;;;;;0.52;0.30;;;;;;;14.30;52.51;98740.13;5066611;28;20083;-77
2021/12/01 11:20:42;;;;;;;1.17;0.50;;;;;;;14.34;52.29;98736.00;5071713;28;20053;-78
2021/12/01 11:23:24;;;;;;;1.50;0.30;;;;;;;14.33;52.35;98726.13;5067594;28;20081;-78
2021/12/01 11:25:57;;;;;;;0.30;0.30;;;;;;;14.34;52.28;98716.88;5045849;28;20122;-77
2021/12/01 11:28:26;;;;;;;0.75;0.30;;;;;;;14.34;52.48;98730.53;5069301;28;20109;-77
2021/12/01 11:30:56;;;;;;;1.08;0.30;;;;;;;14.36;52.53;98723.03;5050174;28;20492;-78
2021/12/01 11:33:24;;;;;;;0.63;0.50;;;;;;;14.36;52.46;98726.59;5069769;28;20395;-77
2021/12/01 11:35:54;;;;;;;0.60;0.40;;;;;;;14.37;52.41;98722.84;5069784;28;20045;-77
2021/12/01 11:38:22;;;;;;;0.45;0.32;;;;;;;14.37;52.63;98714.66;5069103;28;20056;-78
2021/12/01 11:40:50;;;;;;;0.95;0.50;;;;;;;14.38;52.75;98719.13;5069802;28;20048;-77
2021/12/01 11:43:20;;;;;;;0.43;0.43;;;;;;;14.42;52.51;98715.00;5069633;28;20317;-78
2021/12/01 11:45:47;;;;;;;0.47;0.47;;;;;;;14.41;52.92;98716.00;5063228;28;20461;-78
2021/12/01 11:48:18;;;;;;;0.47;0.43;;;;;;;14.44;52.44;98704.75;5067317;28;20049;-78
2021/12/01 11:51:08;;;;;;;0.60;0.50;;;;;;;14.44;52.79;98731.19;5053129;28;20123;-79